Wednesday, September 20, 2017, 9:31 PM EDT

KW99, Petersburg, Grant County Airport

Location: Petersburg, WV, United States Lat: 38.983
Local Time: 9:31 PM EDT ( 1:31 GMT) Lon: -79.133
Time Zone: US/Eastern Elev: 961 ft

Show me the last for .
Show Decoded

2017-09-20 21:10 METAR KW99 210110Z AUTO 00000KT 7SM CLR 21/19 A3004 RMK AO2 T02090192 =
2017-09-20 20:50 METAR KW99 210050Z AUTO 00000KT 7SM CLR 22/20 A3003 RMK AO2 T02150195 =
2017-09-20 20:30 METAR KW99 210030Z AUTO 00000KT 7SM CLR 22/20 A3003 RMK AO2 T02190197 =
2017-09-20 20:10 METAR KW99 210010Z AUTO 28006KT 10SM CLR 22/19 A3002 RMK AO2 T02230190 =
2017-09-20 19:50 METAR KW99 202350Z AUTO 00000KT 10SM CLR 22/19 A3002 RMK AO2 T02220189 10318
                 20222 =
2017-09-20 19:30 METAR KW99 202330Z AUTO 00000KT 10SM CLR 24/19 A3001 RMK AO2 T02350192 =
2017-09-20 19:10 METAR KW99 202310Z AUTO 00000KT 10SM CLR 27/18 A3000 RMK AO2 T02700180 =
2017-09-20 18:50 METAR KW99 202250Z AUTO 03004KT 10SM CLR 28/18 A3000 RMK AO2 T02770178 =
2017-09-20 18:30 METAR KW99 202230Z AUTO 00000KT 10SM CLR 28/18 A3000 RMK AO2 T02820180 =
2017-09-20 18:10 METAR KW99 202210Z AUTO 02005KT 10SM CLR 29/18 A2999 RMK AO2 T02880179 =
2017-09-20 17:50 METAR KW99 202150Z AUTO 02003KT 7SM CLR 29/18 A2999 RMK AO2 T02910179 =
2017-09-20 17:30 METAR KW99 202130Z AUTO 02005KT 10SM CLR 29/18 A2999 RMK AO2 T02910180 =
2017-09-20 17:10 METAR KW99 202110Z AUTO 34004KT 10SM CLR 29/19 A2999 RMK AO2 T02900185 =
2017-09-20 16:50 METAR KW99 202050Z AUTO 00000KT 10SM CLR 30/19 A2998 RMK AO2 T02950189 =
2017-09-20 16:30 METAR KW99 202030Z AUTO 00000KT 10SM SCT120 29/19 A2998 RMK AO2 T02910190 =
2017-09-20 16:10 METAR KW99 202010Z AUTO 10006KT 10SM SCT060 BKN110 29/19 A2998 RMK AO2 T02930193
                 =
2017-09-20 15:50 METAR KW99 201950Z AUTO 11005KT 10SM BKN060 OVC075 29/20 A2998 RMK AO2 LTG DSNT
                 S T02870196 =
2017-09-20 15:35 METAR KW99 201935Z AUTO 11004KT 10SM BKN060 OVC080 29/19 A2998 RMK AO2 T02930192
                 =
2017-09-20 15:10 METAR KW99 201910Z AUTO 12008G11KT 10SM BKN060 OVC070 31/19 A2998 RMK AO2
                 T03070193 =
2017-09-20 14:50 METAR KW99 201850Z AUTO 30005KT 10SM SCT070 32/16 A2998 RMK AO2 LTG DSNT SW
                 T03170164 =
2017-09-20 14:30 METAR KW99 201830Z AUTO 00000KT 10SM CLR 31/18 A2998 RMK AO2 T03070176 =
2017-09-20 14:10 METAR KW99 201810Z AUTO 00000KT 7SM CLR 31/18 A2999 RMK AO2 T03080179 =
2017-09-20 13:50 METAR KW99 201750Z AUTO 28003KT 10SM SCT050 SCT100 31/18 A3000 RMK AO2 T03080178
                 10309 20155 =
2017-09-20 13:30 METAR KW99 201730Z AUTO 23003KT 10SM SCT100 29/19 A3000 RMK AO2 T02940185 =
2017-09-20 13:10 METAR KW99 201710Z AUTO 00000KT 10SM BKN100 29/18 A3001 RMK AO2 T02930184 =
2017-09-20 12:50 METAR KW99 201650Z AUTO 00000KT 10SM CLR 29/18 A3002 RMK AO2 T02890180 =
2017-09-20 12:30 METAR KW99 201630Z AUTO 00000KT 10SM CLR 28/18 A3003 RMK AO2 T02800184 =
2017-09-20 12:10 METAR KW99 201610Z AUTO 00000KT 10SM CLR 28/18 A3003 RMK AO2 T02760180 =
2017-09-20 11:50 METAR KW99 201550Z AUTO 00000KT 10SM CLR 26/18 A3004 RMK AO2 T02630178 =
2017-09-20 11:30 METAR KW99 201530Z AUTO 00000KT 10SM CLR 25/18 A3004 RMK AO2 T02510181 =
2017-09-20 11:10 METAR KW99 201510Z AUTO 00000KT 10SM CLR 25/18 A3005 RMK AO2 T02470183 =
2017-09-20 10:50 METAR KW99 201450Z AUTO 00000KT 10SM CLR 24/18 A3005 RMK AO2 T02430182 =
2017-09-20 10:30 METAR KW99 201430Z AUTO 00000KT 10SM CLR 23/18 A3005 RMK AO2 T02310182 =
2017-09-20 10:10 METAR KW99 201410Z AUTO 00000KT 10SM CLR 22/18 A3006 RMK AO2 T02200177 =
2017-09-20 09:50 METAR KW99 201350Z AUTO 00000KT 7SM CLR 19/17 A3006 RMK AO2 T01940172 =
2017-09-20 09:30 METAR KW99 201330Z AUTO 00000KT 4SM BR CLR 18/17 A3006 RMK AO2 T01790172 =
2017-09-20 09:10 METAR KW99 201310Z AUTO 00000KT 2SM BR BKN002 17/17 A3006 RMK AO2 T01730173 =
2017-09-20 08:50 METAR KW99 201250Z AUTO 00000KT 1/2SM FG OVC002 16/16 A3006 RMK AO2 T01620162 =
2017-09-20 08:30 METAR KW99 201230Z AUTO 00000KT M1/4SM FG OVC002 16/16 A3005 RMK AO2 T01590159 =
2017-09-20 08:10 METAR KW99 201210Z AUTO 00000KT 1/4SM FG OVC002 16/16 A3005 RMK AO2 T01550155 =
2017-09-20 07:50 METAR KW99 201150Z AUTO 00000KT M1/4SM FG OVC002 16/16 A3005 RMK AO2 T01560155
                 10171 20149 =
2017-09-20 07:30 METAR KW99 201130Z AUTO 00000KT M1/4SM FG OVC002 15/15 A3005 RMK AO2 T01540153 =
2017-09-20 07:10 METAR KW99 201110Z AUTO 00000KT 1/4SM FG OVC002 15/15 A3004 RMK AO2 T01520152 =
2017-09-20 06:50 METAR KW99 201050Z AUTO 00000KT 1/2SM FG OVC002 15/15 A3003 RMK AO2 T01520152 =
2017-09-20 06:30 METAR KW99 201030Z AUTO 00000KT 1/4SM FG OVC002 16/16 A3003 RMK AO2 T01560155 =
2017-09-20 06:10 METAR KW99 201010Z AUTO 00000KT 1/4SM FG OVC002 16/16 A3002 RMK AO2 T01570156 =
2017-09-20 05:50 METAR KW99 200950Z AUTO 00000KT 1/4SM FG OVC002 16/16 A3002 RMK AO2 T01570156 =
2017-09-20 05:30 METAR KW99 200930Z AUTO 00000KT 1/2SM FG OVC002 15/15 A3002 RMK AO2 T01540153 =
2017-09-20 05:10 METAR KW99 200910Z AUTO 00000KT 3/4SM BR OVC002 15/15 A3001 RMK AO2 T01540153 =
2017-09-20 04:50 METAR KW99 200850Z AUTO 00000KT 3/4SM BR OVC002 15/15 A3001 RMK AO2 VIS 1/4V2
                 T01510150 =
2017-09-20 04:30 METAR KW99 200830Z AUTO 00000KT 1/4SM FG VV002 15/15 A3001 RMK AO2 T01530152 =
2017-09-20 04:10 METAR KW99 200810Z AUTO 00000KT 1 1/2SM BR VV007 15/15 A3001 RMK AO2 T01520151 =
2017-09-20 03:50 METAR KW99 200750Z AUTO 00000KT 1/2SM FG BKN001 15/15 A3001 RMK AO2 T01490148 =
2017-09-20 03:30 METAR KW99 200730Z AUTO 00000KT 1/2SM FG BKN003 16/15 A3000 RMK AO2 T01550154 =
2017-09-20 03:10 METAR KW99 200710Z AUTO 00000KT 1/2SM FG BKN003 16/16 A3000 RMK AO2 T01620160 =
2017-09-20 02:50 METAR KW99 200650Z AUTO 00000KT 1/2SM FG BKN003 16/16 A3000 RMK AO2 T01620161 =
2017-09-20 02:30 METAR KW99 200630Z AUTO 00000KT 3/4SM BR VV005 16/16 A3001 RMK AO2 T01580157 =
2017-09-20 02:10 METAR KW99 200610Z AUTO 00000KT 1SM BR VV007 16/16 A3001 RMK AO2 T01580157 =
2017-09-20 01:50 METAR KW99 200550Z AUTO 00000KT 1 1/2SM BR VV007 17/17 A3001 RMK AO2 VIS 1/2V4
                 T01680167 10220 20160 402940160 =
2017-09-20 01:30 METAR KW99 200530Z AUTO 00000KT 1/2SM FG VV005 17/17 A3002 RMK AO2 T01660165 =
2017-09-20 01:10 METAR KW99 200510Z AUTO 00000KT 1SM BR VV007 17/17 A3001 RMK AO2 T01710169 =
2017-09-20 00:55 METAR KW99 200455Z AUTO 00000KT 2 1/2SM BR CLR 17/17 A3000 RMK AO2 T01710169 =
2017-09-20 00:30 METAR KW99 200430Z AUTO 00000KT 4SM BR CLR 17/17 A3001 RMK AO2 T01700168 =
2017-09-20 00:10 METAR KW99 200410Z AUTO 00000KT 1/2SM FG VV005 18/17 A3001 RMK AO2 T01760174 =
2017-09-19 23:50 METAR KW99 200350Z AUTO 00000KT 3/4SM BR VV005 18/18 A3000 RMK AO2 T01840181 =
2017-09-19 23:30 METAR KW99 200330Z AUTO 00000KT 3SM BR CLR 18/18 A3000 RMK AO2 T01810177 =
2017-09-19 23:10 METAR KW99 200310Z AUTO 00000KT 5SM BR CLR 19/18 A3000 RMK AO2 T01850181 =
2017-09-19 22:50 METAR KW99 200250Z AUTO 00000KT 4SM BR SCT047 SCT055 19/18 A3000 RMK AO2
                 T01860182 =
2017-09-19 22:30 METAR KW99 200230Z AUTO 00000KT 4SM BR SCT055 20/19 A3000 RMK AO2 T01950192 =
2017-09-19 22:10 METAR KW99 200210Z AUTO 00000KT 5SM BR CLR 19/19 A3000 RMK AO2 T01900186 =
2017-09-19 21:50 METAR KW99 200150Z AUTO 00000KT 5SM BR SCT050 19/19 A2999 RMK AO2 T01940187 =

Support USWX by starting your Amazon purchase here.